Terminal Aerodrome Forecast
Issued by NWS Missoula, MT

Home | Current Version | Previous Version | Text Only | Print | Product List | Glossary On
Versions: 1 2 3 4 5 6 7 8 9 10 11 12 13 14 15 16 17 18
000
FTUS45 KMSO 180520
TAFGPI
TAF
KGPI 180520Z 1806/1906 19011KT P6SM VCSH FEW040 BKN060
     FM181400 18005KT P6SM FEW020 OVC040
     FM181800 19009KT P6SM BKN050=

USA.gov is the U.S. government's official web portal to all federal, state and local government web resources and services.